Terminal Aerodrome Forecast
Issued by NWS Des Moines, IA

Home | Current Version | Previous Version | Text Only | Print | Product List | Glossary On
Versions: 1 2 3 4 5 6 7 8 9 10 11 12 13 14 15 16 17 18 19 20 21 22 23 24 25 26 27 28 29 30 31 32 33
000
FTUS43 KDMX 021122
TAFALO
TAF
KALO 021122Z 0212/0312 22010KT P6SM BKN150
     FM021400 24013G20KT P6SM SCT050 SCT150
     FM030000 29008KT P6SM VCSH SCT050 BKN110
     FM030200 31005KT P6SM SKC=

USA.gov is the U.S. government's official web portal to all federal, state and local government web resources and services.